sensor_id;sensor_type;location;lat;lon;timestamp;pressure;altitude;pressure_sealevel;temperature;humidity
56334;BME280;42240;53.626;55.886;2023-10-31T00:00:50;77245.00;;;-145.10;100.00
56334;BME280;42240;53.626;55.886;2023-10-31T00:02:23;77245.00;;;-145.10;100.00
56334;BME280;42240;53.626;55.886;2023-10-31T00:03:55;77256.84;;;-145.10;100.00
56334;BME280;42240;53.626;55.886;2023-10-31T00:05:28;77256.84;;;-145.10;100.00
56334;BME280;42240;53.626;55.886;2023-10-31T00:07:01;77252.91;;;-145.10;100.00
56334;BME280;42240;53.626;55.886;2023-10-31T00:08:34;77256.84;;;-145.10;100.00
56334;BME280;42240;53.626;55.886;2023-10-31T00:10:07;77256.84;;;-145.10;100.00
56334;BME280;42240;53.626;55.886;2023-10-31T00:11:43;77266.75;;;-145.10;100.00
56334;BME280;42240;53.626;55.886;2023-10-31T00:13:16;77243.00;;;-145.10;100.00
56334;BME280;42240;53.626;55.886;2023-10-31T00:14:49;77256.84;;;-145.10;100.00
56334;BME280;42240;53.626;55.886;2023-10-31T00:16:23;77276.63;;;-145.10;100.00
56334;BME280;42240;53.626;55.886;2023-10-31T00:17:56;77272.69;;;-145.10;100.00
56334;BME280;42240;53.626;55.886;2023-10-31T00:19:28;77270.69;;;-145.10;100.00
56334;BME280;42240;53.626;55.886;2023-10-31T00:21:01;77276.63;;;-145.10;100.00
56334;BME280;42240;53.626;55.886;2023-10-31T00:22:34;77282.56;;;-145.10;100.00
56334;BME280;42240;53.626;55.886;2023-10-31T00:24:07;77284.53;;;-145.10;100.00
56334;BME280;42240;53.626;55.886;2023-10-31T00:25:39;77262.78;;;-145.10;100.00
56334;BME280;42240;53.626;55.886;2023-10-31T00:27:12;77272.69;;;-145.10;100.00
56334;BME280;42240;53.626;55.886;2023-10-31T00:28:45;77264.75;;;-145.10;100.00
56334;BME280;42240;53.626;55.886;2023-10-31T00:30:18;77282.56;;;-145.10;100.00
56334;BME280;42240;53.626;55.886;2023-10-31T00:31:50;77268.72;;;-145.10;100.00
56334;BME280;42240;53.626;55.886;2023-10-31T00:33:23;77274.66;;;-145.10;100.00
56334;BME280;42240;53.626;55.886;2023-10-31T00:34:56;77280.59;;;-145.10;100.00
56334;BME280;42240;53.626;55.886;2023-10-31T00:36:29;77264.75;;;-145.10;100.00
56334;BME280;42240;53.626;55.886;2023-10-31T00:38:02;77254.88;;;-145.10;100.00
56334;BME280;42240;53.626;55.886;2023-10-31T00:39:36;77268.72;;;-145.10;100.00
56334;BME280;42240;53.626;55.886;2023-10-31T00:41:08;77280.59;;;-145.10;100.00
56334;BME280;42240;53.626;55.886;2023-10-31T00:42:41;77282.56;;;-145.10;100.00
56334;BME280;42240;53.626;55.886;2023-10-31T00:44:14;77288.50;;;-145.10;100.00
56334;BME280;42240;53.626;55.886;2023-10-31T00:45:47;77282.56;;;-145.10;100.00
56334;BME280;42240;53.626;55.886;2023-10-31T00:47:20;77284.53;;;-145.10;100.00
56334;BME280;42240;53.626;55.886;2023-10-31T00:48:54;77276.63;;;-145.10;100.00
56334;BME280;42240;53.626;55.886;2023-10-31T00:50:27;77272.69;;;-145.10;100.00
56334;BME280;42240;53.626;55.886;2023-10-31T00:52:00;77262.78;;;-145.10;100.00
56334;BME280;42240;53.626;55.886;2023-10-31T00:53:33;77286.53;;;-145.10;100.00
56334;BME280;42240;53.626;55.886;2023-10-31T00:55:05;77284.53;;;-145.10;100.00
56334;BME280;42240;53.626;55.886;2023-10-31T00:56:38;77284.53;;;-145.10;100.00
56334;BME280;42240;53.626;55.886;2023-10-31T00:58:11;77284.53;;;-145.10;100.00
56334;BME280;42240;53.626;55.886;2023-10-31T00:59:44;77276.63;;;-145.10;100.00
56334;BME280;42240;53.626;55.886;2023-10-31T01:01:16;77272.69;;;-145.10;100.00
56334;BME280;42240;53.626;55.886;2023-10-31T01:02:49;77250.91;;;-145.10;100.00
56334;BME280;42240;53.626;55.886;2023-10-31T01:04:23;77260.81;;;-145.10;100.00
56334;BME280;42240;53.626;55.886;2023-10-31T01:05:56;77272.69;;;-145.10;100.00
56334;BME280;42240;53.626;55.886;2023-10-31T01:07:30;77288.50;;;-145.10;100.00
56334;BME280;42240;53.626;55.886;2023-10-31T01:09:03;77284.53;;;-145.10;100.00
56334;BME280;42240;53.626;55.886;2023-10-31T01:10:36;77276.63;;;-145.10;100.00
56334;BME280;42240;53.626;55.886;2023-10-31T01:12:08;77258.84;;;-145.10;100.00
56334;BME280;42240;53.626;55.886;2023-10-31T01:13:44;77266.75;;;-145.10;100.00
56334;BME280;42240;53.626;55.886;2023-10-31T01:15:17;77260.81;;;-145.10;100.00
56334;BME280;42240;53.626;55.886;2023-10-31T01:16:50;77256.84;;;-145.10;100.00
56334;BME280;42240;53.626;55.886;2023-10-31T01:18:23;77260.81;;;-145.10;100.00
56334;BME280;42240;53.626;55.886;2023-10-31T01:19:56;77282.56;;;-145.10;100.00
56334;BME280;42240;53.626;55.886;2023-10-31T01:21:28;77260.81;;;-145.10;100.00
56334;BME280;42240;53.626;55.886;2023-10-31T01:23:01;77276.63;;;-145.10;100.00
56334;BME280;42240;53.626;55.886;2023-10-31T01:24:34;77282.56;;;-145.10;100.00
56334;BME280;42240;53.626;55.886;2023-10-31T01:26:07;77270.69;;;-145.10;100.00
56334;BME280;42240;53.626;55.886;2023-10-31T01:27:41;77300.38;;;-145.10;100.00
56334;BME280;42240;53.626;55.886;2023-10-31T01:29:14;77278.59;;;-145.10;100.00
56334;BME280;42240;53.626;55.886;2023-10-31T01:30:47;77268.72;;;-145.10;100.00
56334;BME280;42240;53.626;55.886;2023-10-31T01:32:20;77245.00;;;-145.10;100.00
56334;BME280;42240;53.626;55.886;2023-10-31T01:33:53;77266.75;;;-145.10;100.00
56334;BME280;42240;53.626;55.886;2023-10-31T01:35:26;77262.78;;;-145.10;100.00
56334;BME280;42240;53.626;55.886;2023-10-31T01:36:59;77264.75;;;-145.10;100.00
56334;BME280;42240;53.626;55.886;2023-10-31T01:38:32;77264.75;;;-145.10;100.00
56334;BME280;42240;53.626;55.886;2023-10-31T01:40:05;77280.59;;;-145.10;100.00
56334;BME280;42240;53.626;55.886;2023-10-31T01:41:42;77264.75;;;-145.10;100.00
56334;BME280;42240;53.626;55.886;2023-10-31T01:43:28;77266.75;;;-145.10;100.00
56334;BME280;42240;53.626;55.886;2023-10-31T01:45:01;77282.56;;;-145.10;100.00
56334;BME280;42240;53.626;55.886;2023-10-31T01:46:34;77268.72;;;-145.10;100.00
56334;BME280;42240;53.626;55.886;2023-10-31T01:48:07;77280.59;;;-145.10;100.00
56334;BME280;42240;53.626;55.886;2023-10-31T01:49:40;77292.44;;;-145.10;100.00
56334;BME280;42240;53.626;55.886;2023-10-31T01:51:13;77282.56;;;-145.10;100.00
56334;BME280;42240;53.626;55.886;2023-10-31T01:52:46;77280.59;;;-145.10;100.00
56334;BME280;42240;53.626;55.886;2023-10-31T01:54:19;77282.56;;;-145.10;100.00
56334;BME280;42240;53.626;55.886;2023-10-31T01:55:52;77278.59;;;-145.10;100.00
56334;BME280;42240;53.626;55.886;2023-10-31T01:57:26;77264.75;;;-145.10;100.00
56334;BME280;42240;53.626;55.886;2023-10-31T01:58:59;77260.81;;;-145.10;100.00
56334;BME280;42240;53.626;55.886;2023-10-31T02:00:32;77264.75;;;-145.10;100.00
56334;BME280;42240;53.626;55.886;2023-10-31T02:02:04;77288.50;;;-145.10;100.00
56334;BME280;42240;53.626;55.886;2023-10-31T02:03:38;77268.72;;;-145.10;100.00
56334;BME280;42240;53.626;55.886;2023-10-31T02:05:11;77254.88;;;-145.10;100.00
56334;BME280;42240;53.626;55.886;2023-10-31T02:06:44;77237.06;;;-145.10;100.00
56334;BME280;42240;53.626;55.886;2023-10-31T02:08:16;77245.00;;;-145.10;100.00
56334;BME280;42240;53.626;55.886;2023-10-31T02:09:49;77268.72;;;-145.10;100.00
56334;BME280;42240;53.626;55.886;2023-10-31T02:11:22;77292.44;;;-145.10;100.00
56334;BME280;42240;53.626;55.886;2023-10-31T02:12:55;77286.53;;;-145.10;100.00
56334;BME280;42240;53.626;55.886;2023-10-31T02:14:28;77284.53;;;-145.10;100.00
56334;BME280;42240;53.626;55.886;2023-10-31T02:16:00;77280.59;;;-145.10;100.00
56334;BME280;42240;53.626;55.886;2023-10-31T02:17:34;77278.59;;;-145.10;100.00
56334;BME280;42240;53.626;55.886;2023-10-31T02:19:07;77276.63;;;-145.10;100.00
56334;BME280;42240;53.626;55.886;2023-10-31T02:20:41;77280.59;;;-145.10;100.00
56334;BME280;42240;53.626;55.886;2023-10-31T02:22:14;77280.59;;;-145.10;100.00
56334;BME280;42240;53.626;55.886;2023-10-31T02:23:57;77286.53;;;-145.10;100.00
56334;BME280;42240;53.626;55.886;2023-10-31T02:25:30;77272.69;;;-145.10;100.00
56334;BME280;42240;53.626;55.886;2023-10-31T02:27:03;77282.56;;;-145.10;100.00
56334;BME280;42240;53.626;55.886;2023-10-31T02:28:37;77286.53;;;-145.10;100.00
56334;BME280;42240;53.626;55.886;2023-10-31T02:30:10;77262.78;;;-145.10;100.00
56334;BME280;42240;53.626;55.886;2023-10-31T02:31:43;77266.75;;;-145.10;100.00
56334;BME280;42240;53.626;55.886;2023-10-31T02:33:16;77280.59;;;-145.10;100.00
56334;BME280;42240;53.626;55.886;2023-10-31T02:34:49;77276.63;;;-145.10;100.00
56334;BME280;42240;53.626;55.886;2023-10-31T02:36:22;77304.31;;;-145.10;100.00
56334;BME280;42240;53.626;55.886;2023-10-31T02:37:55;77272.69;;;-145.10;100.00
56334;BME280;42240;53.626;55.886;2023-10-31T02:39:28;77312.22;;;-145.10;100.00
56334;BME280;42240;53.626;55.886;2023-10-31T02:41:02;77292.44;;;-145.10;100.00
56334;BME280;42240;53.626;55.886;2023-10-31T02:42:35;77276.63;;;-145.10;100.00
56334;BME280;42240;53.626;55.886;2023-10-31T02:44:10;77288.50;;;-145.10;100.00
56334;BME280;42240;53.626;55.886;2023-10-31T02:45:44;77276.63;;;-145.10;100.00
56334;BME280;42240;53.626;55.886;2023-10-31T02:47:17;77270.69;;;-145.10;100.00
56334;BME280;42240;53.626;55.886;2023-10-31T02:48:50;77268.72;;;-145.10;100.00
56334;BME280;42240;53.626;55.886;2023-10-31T02:50:24;77266.75;;;-145.10;100.00
56334;BME280;42240;53.626;55.886;2023-10-31T02:51:58;77250.91;;;-145.10;100.00
56334;BME280;42240;53.626;55.886;2023-10-31T02:53:31;77274.66;;;-145.10;100.00
56334;BME280;42240;53.626;55.886;2023-10-31T02:55:04;77252.91;;;-145.10;100.00
56334;BME280;42240;53.626;55.886;2023-10-31T02:56:37;77254.88;;;-145.10;100.00
56334;BME280;42240;53.626;55.886;2023-10-31T02:58:10;77264.75;;;-145.10;100.00
56334;BME280;42240;53.626;55.886;2023-10-31T02:59:43;77248.94;;;-145.10;100.00
56334;BME280;42240;53.626;55.886;2023-10-31T03:01:16;77245.00;;;-145.10;100.00
56334;BME280;42240;53.626;55.886;2023-10-31T03:02:50;77252.91;;;-145.10;100.00
56334;BME280;42240;53.626;55.886;2023-10-31T03:04:23;77245.00;;;-145.10;100.00
56334;BME280;42240;53.626;55.886;2023-10-31T03:05:57;77246.97;;;-145.10;100.00
56334;BME280;42240;53.626;55.886;2023-10-31T03:07:29;77252.91;;;-145.10;100.00
56334;BME280;42240;53.626;55.886;2023-10-31T03:09:02;77241.03;;;-145.10;100.00
56334;BME280;42240;53.626;55.886;2023-10-31T03:10:35;77264.75;;;-145.10;100.00
56334;BME280;42240;53.626;55.886;2023-10-31T03:12:08;77245.00;;;-145.10;100.00
56334;BME280;42240;53.626;55.886;2023-10-31T03:13:40;77250.91;;;-145.10;100.00
56334;BME280;42240;53.626;55.886;2023-10-31T03:15:13;77233.13;;;-145.10;100.00
56334;BME280;42240;53.626;55.886;2023-10-31T03:16:46;77237.06;;;-145.10;100.00
56334;BME280;42240;53.626;55.886;2023-10-31T03:18:19;77241.03;;;-145.10;100.00
56334;BME280;42240;53.626;55.886;2023-10-31T03:19:52;77237.06;;;-145.10;100.00
56334;BME280;42240;53.626;55.886;2023-10-31T03:21:24;77258.84;;;-145.10;100.00
56334;BME280;42240;53.626;55.886;2023-10-31T03:22:57;77217.31;;;-145.10;100.00
56334;BME280;42240;53.626;55.886;2023-10-31T03:24:30;77217.31;;;-145.10;100.00
56334;BME280;42240;53.626;55.886;2023-10-31T03:26:03;77215.31;;;-145.10;100.00
56334;BME280;42240;53.626;55.886;2023-10-31T03:27:36;77201.47;;;-145.10;100.00
56334;BME280;42240;53.626;55.886;2023-10-31T03:29:09;77189.59;;;-145.10;100.00
56334;BME280;42240;53.626;55.886;2023-10-31T03:30:43;77195.53;;;-145.10;100.00
56334;BME280;42240;53.626;55.886;2023-10-31T03:32:16;77183.69;;;-145.10;100.00
56334;BME280;42240;53.626;55.886;2023-10-31T03:33:49;77189.59;;;-145.10;100.00
56334;BME280;42240;53.626;55.886;2023-10-31T03:35:22;77165.88;;;-145.10;100.00
56334;BME280;42240;53.626;55.886;2023-10-31T03:36:55;77177.75;;;-145.10;100.00
56334;BME280;42240;53.626;55.886;2023-10-31T03:38:28;77195.53;;;-145.10;100.00
56334;BME280;42240;53.626;55.886;2023-10-31T03:40:01;77173.78;;;-145.10;100.00
56334;BME280;42240;53.626;55.886;2023-10-31T03:41:34;77161.94;;;-145.10;100.00
56334;BME280;42240;53.626;55.886;2023-10-31T03:43:06;77154.00;;;-145.10;100.00
56334;BME280;42240;53.626;55.886;2023-10-31T03:44:40;77165.88;;;-145.10;100.00
56334;BME280;42240;53.626;55.886;2023-10-31T03:46:12;77140.16;;;-145.10;100.00
56334;BME280;42240;53.626;55.886;2023-10-31T03:47:45;77154.00;;;-145.10;100.00
56334;BME280;42240;53.626;55.886;2023-10-31T03:49:18;77126.31;;;-145.10;100.00
56334;BME280;42240;53.626;55.886;2023-10-31T03:50:51;77108.53;;;-145.10;100.00
56334;BME280;42240;53.626;55.886;2023-10-31T03:52:24;77116.44;;;-145.10;100.00
56334;BME280;42240;53.626;55.886;2023-10-31T03:53:58;77126.31;;;-145.10;100.00
56334;BME280;42240;53.626;55.886;2023-10-31T03:55:32;77144.13;;;-145.10;100.00
56334;BME280;42240;53.626;55.886;2023-10-31T03:57:05;77116.44;;;-145.10;100.00
56334;BME280;42240;53.626;55.886;2023-10-31T03:58:39;77130.28;;;-145.10;100.00
56334;BME280;42240;53.626;55.886;2023-10-31T04:00:12;77126.31;;;-145.10;100.00
56334;BME280;42240;53.626;55.886;2023-10-31T04:01:46;77120.41;;;-145.10;100.00
56334;BME280;42240;53.626;55.886;2023-10-31T04:03:19;77114.47;;;-145.10;100.00
56334;BME280;42240;53.626;55.886;2023-10-31T04:04:52;77122.38;;;-145.10;100.00
56334;BME280;42240;53.626;55.886;2023-10-31T04:06:25;77126.31;;;-145.10;100.00
56334;BME280;42240;53.626;55.886;2023-10-31T04:07:58;77102.59;;;-145.10;100.00
56334;BME280;42240;53.626;55.886;2023-10-31T04:09:31;77078.88;;;-145.10;100.00
56334;BME280;42240;53.626;55.886;2023-10-31T04:11:04;77106.56;;;-145.10;100.00
56334;BME280;42240;53.626;55.886;2023-10-31T04:12:38;77104.56;;;-145.10;100.00
56334;BME280;42240;53.626;55.886;2023-10-31T04:14:11;77088.75;;;-145.10;100.00
56334;BME280;42240;53.626;55.886;2023-10-31T04:15:44;77074.91;;;-145.10;100.00
56334;BME280;42240;53.626;55.886;2023-10-31T04:17:17;77055.13;;;-145.10;100.00
56334;BME280;42240;53.626;55.886;2023-10-31T04:18:50;77063.03;;;-145.10;100.00
56334;BME280;42240;53.626;55.886;2023-10-31T04:20:23;77080.84;;;-145.10;100.00
56334;BME280;42240;53.626;55.886;2023-10-31T04:21:55;77055.13;;;-145.10;100.00
56334;BME280;42240;53.626;55.886;2023-10-31T04:23:29;77051.19;;;-145.10;100.00
56334;BME280;42240;53.626;55.886;2023-10-31T04:25:02;77063.03;;;-145.10;100.00
56334;BME280;42240;53.626;55.886;2023-10-31T04:26:35;77035.34;;;-145.10;100.00
56334;BME280;42240;53.626;55.886;2023-10-31T04:28:08;77055.13;;;-145.10;100.00
56334;BME280;42240;53.626;55.886;2023-10-31T04:29:41;77039.31;;;-145.10;100.00
56334;BME280;42240;53.626;55.886;2023-10-31T04:31:13;77063.03;;;-145.10;100.00
56334;BME280;42240;53.626;55.886;2023-10-31T04:32:46;77043.25;;;-145.10;100.00
56334;BME280;42240;53.626;55.886;2023-10-31T04:34:19;77043.25;;;-145.10;100.00
56334;BME280;42240;53.626;55.886;2023-10-31T04:35:52;77033.38;;;-145.10;100.00
56334;BME280;42240;53.626;55.886;2023-10-31T04:37:24;77015.56;;;-145.10;100.00
56334;BME280;42240;53.626;55.886;2023-10-31T04:38:57;77015.56;;;-145.10;100.00
56334;BME280;42240;53.626;55.886;2023-10-31T04:40:30;77035.34;;;-145.10;100.00
56334;BME280;42240;53.626;55.886;2023-10-31T04:42:03;77013.59;;;-145.10;100.00
56334;BME280;42240;53.626;55.886;2023-10-31T04:43:36;77033.38;;;-145.10;100.00
56334;BME280;42240;53.626;55.886;2023-10-31T04:45:09;77033.38;;;-145.10;100.00
56334;BME280;42240;53.626;55.886;2023-10-31T04:46:42;77019.53;;;-145.10;100.00
56334;BME280;42240;53.626;55.886;2023-10-31T04:48:16;77003.72;;;-145.10;100.00
56334;BME280;42240;53.626;55.886;2023-10-31T04:49:49;77013.59;;;-145.10;100.00
56334;BME280;42240;53.626;55.886;2023-10-31T04:51:21;77013.59;;;-145.10;100.00
56334;BME280;42240;53.626;55.886;2023-10-31T04:52:54;77011.63;;;-145.10;100.00
56334;BME280;42240;53.626;55.886;2023-10-31T04:54:28;77009.66;;;-145.10;100.00
56334;BME280;42240;53.626;55.886;2023-10-31T04:56:01;76983.94;;;-145.10;100.00
56334;BME280;42240;53.626;55.886;2023-10-31T04:57:33;76995.81;;;-145.10;100.00
56334;BME280;42240;53.626;55.886;2023-10-31T04:59:06;76987.88;;;-145.10;100.00
56334;BME280;42240;53.626;55.886;2023-10-31T05:00:39;76964.16;;;-145.10;100.00
56334;BME280;42240;53.626;55.886;2023-10-31T05:02:12;76966.13;;;-145.10;100.00
56334;BME280;42240;53.626;55.886;2023-10-31T05:03:45;76932.53;;;-145.10;100.00
56334;BME280;42240;53.626;55.886;2023-10-31T05:05:23;76972.06;;;-145.10;100.00
56334;BME280;42240;53.626;55.886;2023-10-31T05:06:55;76964.16;;;-145.10;100.00
56334;BME280;42240;53.626;55.886;2023-10-31T05:08:28;76948.34;;;-145.10;100.00
56334;BME280;42240;53.626;55.886;2023-10-31T05:10:01;76938.44;;;-145.10;100.00
56334;BME280;42240;53.626;55.886;2023-10-31T05:11:34;76966.13;;;-145.10;100.00
56334;BME280;42240;53.626;55.886;2023-10-31T05:13:07;76976.03;;;-145.10;100.00
56334;BME280;42240;53.626;55.886;2023-10-31T05:14:40;76946.38;;;-145.10;100.00
56334;BME280;42240;53.626;55.886;2023-10-31T05:16:12;76964.16;;;-145.10;100.00
56334;BME280;42240;53.626;55.886;2023-10-31T05:17:45;76944.38;;;-145.10;100.00
56334;BME280;42240;53.626;55.886;2023-10-31T05:19:18;76950.31;;;-145.10;100.00
56334;BME280;42240;53.626;55.886;2023-10-31T05:20:52;76948.34;;;-145.10;100.00
56334;BME280;42240;53.626;55.886;2023-10-31T05:22:25;76968.13;;;-145.10;100.00
56334;BME280;42240;53.626;55.886;2023-10-31T05:23:58;76968.13;;;-145.10;100.00
56334;BME280;42240;53.626;55.886;2023-10-31T05:25:30;76948.34;;;-145.10;100.00
56334;BME280;42240;53.626;55.886;2023-10-31T05:27:03;76932.53;;;-145.10;100.00
56334;BME280;42240;53.626;55.886;2023-10-31T05:28:37;76942.41;;;-145.10;100.00
56334;BME280;42240;53.626;55.886;2023-10-31T05:30:10;76940.44;;;-145.10;100.00
56334;BME280;42240;53.626;55.886;2023-10-31T05:31:43;76946.38;;;-145.10;100.00
56334;BME280;42240;53.626;55.886;2023-10-31T05:33:16;76934.50;;;-145.10;100.00
56334;BME280;42240;53.626;55.886;2023-10-31T05:34:48;76956.25;;;-145.10;100.00
56334;BME280;42240;53.626;55.886;2023-10-31T05:36:22;76938.44;;;-145.10;100.00
56334;BME280;42240;53.626;55.886;2023-10-31T05:37:55;76968.13;;;-145.10;100.00
56334;BME280;42240;53.626;55.886;2023-10-31T05:39:28;76944.38;;;-145.10;100.00
56334;BME280;42240;53.626;55.886;2023-10-31T05:41:01;76932.53;;;-145.10;100.00
56334;BME280;42240;53.626;55.886;2023-10-31T05:42:33;76936.47;;;-145.10;100.00
56334;BME280;42240;53.626;55.886;2023-10-31T05:44:06;76948.34;;;-145.10;100.00
56334;BME280;42240;53.626;55.886;2023-10-31T05:45:39;76950.31;;;-145.10;100.00
56334;BME280;42240;53.626;55.886;2023-10-31T05:47:15;76932.53;;;-145.10;100.00
56334;BME280;42240;53.626;55.886;2023-10-31T05:48:47;76924.59;;;-145.10;100.00
56334;BME280;42240;53.626;55.886;2023-10-31T05:50:21;76928.56;;;-145.10;100.00
56334;BME280;42240;53.626;55.886;2023-10-31T05:51:54;76944.38;;;-145.10;100.00
56334;BME280;42240;53.626;55.886;2023-10-31T05:53:26;76948.34;;;-145.10;100.00
56334;BME280;42240;53.626;55.886;2023-10-31T05:55:00;76950.31;;;-145.10;100.00
56334;BME280;42240;53.626;55.886;2023-10-31T05:56:33;76966.13;;;-145.10;100.00
56334;BME280;42240;53.626;55.886;2023-10-31T05:58:09;76964.16;;;-145.10;100.00
56334;BME280;42240;53.626;55.886;2023-10-31T05:59:42;76950.31;;;-145.10;100.00
56334;BME280;42240;53.626;55.886;2023-10-31T06:01:15;76932.53;;;-145.10;100.00
56334;BME280;42240;53.626;55.886;2023-10-31T06:02:48;76916.69;;;-145.10;100.00
56334;BME280;42240;53.626;55.886;2023-10-31T06:04:20;76928.56;;;-145.10;100.00
56334;BME280;42240;53.626;55.886;2023-10-31T06:05:54;76934.50;;;-145.10;100.00
56334;BME280;42240;53.626;55.886;2023-10-31T06:07:26;76904.84;;;-145.10;100.00
56334;BME280;42240;53.626;55.886;2023-10-31T06:08:59;76904.84;;;-145.10;100.00
56334;BME280;42240;53.626;55.886;2023-10-31T06:10:32;76904.84;;;-145.10;100.00
56334;BME280;42240;53.626;55.886;2023-10-31T06:12:05;76908.78;;;-145.10;100.00
56334;BME280;42240;53.626;55.886;2023-10-31T06:13:38;76887.03;;;-145.10;100.00
56334;BME280;42240;53.626;55.886;2023-10-31T06:15:10;76892.97;;;-145.10;100.00
56334;BME280;42240;53.626;55.886;2023-10-31T06:16:43;76900.88;;;-145.10;100.00
56334;BME280;42240;53.626;55.886;2023-10-31T06:18:16;76896.94;;;-145.10;100.00
56334;BME280;42240;53.626;55.886;2023-10-31T06:19:49;76910.75;;;-145.10;100.00
56334;BME280;42240;53.626;55.886;2023-10-31T06:21:22;76908.78;;;-145.10;100.00
56334;BME280;42240;53.626;55.886;2023-10-31T06:22:55;76898.91;;;-145.10;100.00
56334;BME280;42240;53.626;55.886;2023-10-31T06:24:28;76887.03;;;-145.10;100.00
56334;BME280;42240;53.626;55.886;2023-10-31T06:26:02;76898.91;;;-145.10;100.00
56334;BME280;42240;53.626;55.886;2023-10-31T06:27:35;76891.00;;;-145.10;100.00
56334;BME280;42240;53.626;55.886;2023-10-31T06:29:07;76885.06;;;-145.10;100.00
56334;BME280;42240;53.626;55.886;2023-10-31T06:31:00;76865.28;;;-145.10;100.00
56334;BME280;42240;53.626;55.886;2023-10-31T06:32:34;76867.25;;;-145.10;100.00
56334;BME280;42240;53.626;55.886;2023-10-31T06:34:08;76853.41;;;-145.10;100.00
56334;BME280;42240;53.626;55.886;2023-10-31T06:35:41;76825.72;;;-145.10;100.00
56334;BME280;42240;53.626;55.886;2023-10-31T06:37:14;76847.50;;;-145.10;100.00
56334;BME280;42240;53.626;55.886;2023-10-31T06:38:47;76849.47;;;-145.10;100.00
56334;BME280;42240;53.626;55.886;2023-10-31T06:40:20;76845.50;;;-145.10;100.00
56334;BME280;42240;53.626;55.886;2023-10-31T06:41:55;76853.41;;;-145.10;100.00
56334;BME280;42240;53.626;55.886;2023-10-31T06:43:28;76851.44;;;-145.10;100.00
56334;BME280;42240;53.626;55.886;2023-10-31T06:45:05;76861.34;;;-145.10;100.00
56334;BME280;42240;53.626;55.886;2023-10-31T06:46:38;76861.34;;;-145.10;100.00
56334;BME280;42240;53.626;55.886;2023-10-31T06:48:11;76849.47;;;-145.10;100.00
56334;BME280;42240;53.626;55.886;2023-10-31T06:49:44;76835.63;;;-145.10;100.00
56334;BME280;42240;53.626;55.886;2023-10-31T06:51:17;76833.66;;;-145.10;100.00
56334;BME280;42240;53.626;55.886;2023-10-31T06:52:50;76847.50;;;-145.10;100.00
56334;BME280;42240;53.626;55.886;2023-10-31T06:54:22;76841.56;;;-145.10;100.00
56334;BME280;42240;53.626;55.886;2023-10-31T06:55:55;76833.66;;;-145.10;100.00
56334;BME280;42240;53.626;55.886;2023-10-31T06:57:28;76821.78;;;-145.10;100.00
56334;BME280;42240;53.626;55.886;2023-10-31T06:59:00;76792.13;;;-145.10;100.00
56334;BME280;42240;53.626;55.886;2023-10-31T07:00:33;76790.13;;;-145.10;100.00
56334;BME280;42240;53.626;55.886;2023-10-31T07:02:06;76805.97;;;-145.10;100.00
56334;BME280;42240;53.626;55.886;2023-10-31T07:03:39;76805.97;;;-145.10;100.00
56334;BME280;42240;53.626;55.886;2023-10-31T07:05:12;76774.31;;;-145.10;100.00
56334;BME280;42240;53.626;55.886;2023-10-31T07:06:46;76800.03;;;-145.10;100.00
56334;BME280;42240;53.626;55.886;2023-10-31T07:08:19;76740.69;;;-145.10;100.00
56334;BME280;42240;53.626;55.886;2023-10-31T07:09:52;76778.28;;;-145.10;100.00
56334;BME280;42240;53.626;55.886;2023-10-31T07:11:25;76774.31;;;-145.10;100.00
56334;BME280;42240;53.626;55.886;2023-10-31T07:12:58;76762.44;;;-145.10;100.00
56334;BME280;42240;53.626;55.886;2023-10-31T07:14:31;76762.44;;;-145.10;100.00
56334;BME280;42240;53.626;55.886;2023-10-31T07:16:04;76805.97;;;-145.10;100.00
56334;BME280;42240;53.626;55.886;2023-10-31T07:17:37;76782.22;;;-145.10;100.00
56334;BME280;42240;53.626;55.886;2023-10-31T07:19:10;76821.78;;;-145.10;100.00
56334;BME280;42240;53.626;55.886;2023-10-31T07:20:43;76819.81;;;-145.10;100.00
56334;BME280;42240;53.626;55.886;2023-10-31T07:22:16;76809.91;;;-145.10;100.00
56334;BME280;42240;53.626;55.886;2023-10-31T07:23:49;76803.97;;;-145.10;100.00
56334;BME280;42240;53.626;55.886;2023-10-31T07:25:22;76809.91;;;-145.10;100.00
56334;BME280;42240;53.626;55.886;2023-10-31T07:26:55;76798.03;;;-145.10;100.00
56334;BME280;42240;53.626;55.886;2023-10-31T07:28:28;76786.19;;;-145.10;100.00
56334;BME280;42240;53.626;55.886;2023-10-31T07:30:04;76766.41;;;-145.10;100.00
56334;BME280;42240;53.626;55.886;2023-10-31T07:31:38;76758.50;;;-145.10;100.00
56334;BME280;42240;53.626;55.886;2023-10-31T07:33:11;76770.38;;;-145.10;100.00
56334;BME280;42240;53.626;55.886;2023-10-31T07:34:44;76748.59;;;-145.10;100.00
56334;BME280;42240;53.626;55.886;2023-10-31T07:36:17;76754.53;;;-145.10;100.00
56334;BME280;42240;53.626;55.886;2023-10-31T07:37:50;76758.50;;;-145.10;100.00
56334;BME280;42240;53.626;55.886;2023-10-31T07:39:23;76726.84;;;-145.10;100.00
56334;BME280;42240;53.626;55.886;2023-10-31T07:40:55;76756.53;;;-145.10;100.00
56334;BME280;42240;53.626;55.886;2023-10-31T07:42:29;76770.38;;;-145.10;100.00
56334;BME280;42240;53.626;55.886;2023-10-31T07:44:02;76754.53;;;-145.10;100.00
56334;BME280;42240;53.626;55.886;2023-10-31T07:45:35;76750.59;;;-145.10;100.00
56334;BME280;42240;53.626;55.886;2023-10-31T07:47:07;76764.44;;;-145.10;100.00
56334;BME280;42240;53.626;55.886;2023-10-31T07:48:40;76756.53;;;-145.10;100.00